»·PEaware :: ASA503 KLAX-KPDX

ASA503 :: KLAX-KPDX

FLIGHT INFORMATION

Flight Status: Arrived
Operator:
Alaska Airlines
More flights by this operator :: More flights under this callsign
Pilot: Andre N. (13929)
Aircraft: BOEING 737-800
(B738)
More flights by this aircraft type
Origin: KLAX Los Angeles Intl
United States
Destination: KPDX Portland Intl
United States
More flights between these airports :: More routes between these airports
Route: +SUMMR1 SCTRR SNS RBL OED MOXEE TMBRS2
File this flight plan on PilotEdge
Remarks:
Altitude:
(Current/Filed)
38,000ft
Speed:
(Current/Filed)
470kts
Departed: 08-Mar-18 08:48 AM
Arrived: 08-Mar-18 10:55 AM
Distance/Time
Traveled:
725nm/2:07
Distance/Time
To Go:
Arrived

Flight Plot

Page will automatically refresh every two minutes.

Flight plan parsing failed; only flown route is shown


Map Options




Map Legend


Flown Route
Filed Route
Departure Airport
Arrival Airport
Navaid (VOR, NDB)
Fix

Horizontal Profiles

Position Reports

Time Latitude Longitude Heading Altitude Ground
Speed
08-Mar-18 08:17 33.940864 -118.402574 96 132ft 0kts
08-Mar-18 08:18 33.940864 -118.402574 96 132ft 0kts
08-Mar-18 08:27 33.940864 -118.402574 96 132ft 0kts
08-Mar-18 08:28 33.940864 -118.402574 96 132ft 0kts
08-Mar-18 08:29 33.940864 -118.402574 96 132ft 0kts
08-Mar-18 08:30 33.940864 -118.402574 96 132ft 0kts
08-Mar-18 08:31 33.940864 -118.402574 96 132ft 0kts
08-Mar-18 08:32 33.940864 -118.402574 96 132ft 0kts
08-Mar-18 08:33 33.940864 -118.402574 96 132ft 0kts
08-Mar-18 08:34 33.940864 -118.402574 96 132ft 0kts
08-Mar-18 08:35 33.940864 -118.402574 96 132ft 0kts
08-Mar-18 08:36 33.940864 -118.402574 96 132ft 0kts
08-Mar-18 08:37 33.940864 -118.402574 96 132ft 0kts
08-Mar-18 08:38 33.940864 -118.402574 96 132ft 0kts
08-Mar-18 08:39 33.940864 -118.402574 96 132ft 0kts
08-Mar-18 08:40 33.940864 -118.402574 96 132ft 0kts
08-Mar-18 08:41 33.940864 -118.402574 96 132ft 0kts
08-Mar-18 08:42 33.940864 -118.402574 96 132ft 0kts
08-Mar-18 08:43 33.940864 -118.402574 96 132ft 0kts
08-Mar-18 08:44 33.941097 -118.403161 149 132ft 2kts
08-Mar-18 08:45 33.941336 -118.403250 173 132ft 0kts
08-Mar-18 08:46 33.941336 -118.403250 173 132ft 0kts
08-Mar-18 08:47 33.941336 -118.403250 173 132ft 0kts
08-Mar-18 08:48 33.941336 -118.403250 173 132ft 0kts
08-Mar-18 08:49 33.939764 -118.403021 173 132ft 19kts
08-Mar-18 08:50 33.938930 -118.398523 83 132ft 24kts
08-Mar-18 08:51 33.939521 -118.392671 82 132ft 23kts
08-Mar-18 08:52 33.940312 -118.384998 84 132ft 18kts
08-Mar-18 08:53 33.940370 -118.384377 83 132ft 1kts
08-Mar-18 08:54 33.939370 -118.384710 263 132ft 28kts
08-Mar-18 08:55 33.934546 -118.432801 263 1226ft 216kts
08-Mar-18 08:56 33.927610 -118.510732 265 4190ft 257kts
08-Mar-18 08:57 33.920395 -118.596515 266 7775ft 266kts
08-Mar-18 08:58 33.917122 -118.682088 271 11126ft 269kts
08-Mar-18 08:59 33.917170 -118.777575 269 11990ft 307kts
08-Mar-18 09:00 33.918208 -118.881136 272 14458ft 303kts
08-Mar-18 09:01 33.921352 -118.981914 272 17720ft 304kts
08-Mar-18 09:02 33.951152 -119.075198 298 20613ft 313kts
08-Mar-18 09:03 33.998230 -119.163731 296 23048ft 310kts
08-Mar-18 09:04 34.065693 -119.235868 316 23999ft 340kts
08-Mar-18 09:05 34.134866 -119.293878 314 25700ft 349kts
08-Mar-18 09:06 34.202119 -119.351603 313 27456ft 350kts
08-Mar-18 09:07 34.280053 -119.418867 311 29254ft 351kts
08-Mar-18 09:08 34.361813 -119.489706 311 30471ft 365kts
08-Mar-18 09:09 34.441764 -119.560609 308 32096ft 358kts
08-Mar-18 09:10 34.517856 -119.632802 307 33458ft 357kts
08-Mar-18 09:11 34.593391 -119.704303 306 34756ft 355kts
08-Mar-18 09:12 34.670378 -119.777197 306 36014ft 352kts
08-Mar-18 09:13 34.749358 -119.852454 307 36173ft 378kts
08-Mar-18 09:14 34.832869 -119.931915 308 36179ft 406kts
08-Mar-18 09:15 34.922836 -120.017522 309 36175ft 413kts
08-Mar-18 09:16 35.012690 -120.103425 309 36178ft 414kts
08-Mar-18 09:17 35.102249 -120.189307 310 36176ft 413kts
08-Mar-18 09:18 35.179720 -120.263786 310 36164ft 415kts
08-Mar-18 09:19 35.269283 -120.345397 311 36160ft 416kts
08-Mar-18 09:20 35.361608 -120.429953 311 36158ft 417kts
08-Mar-18 09:21 35.453829 -120.514695 311 36167ft 416kts
08-Mar-18 09:22 35.546584 -120.599835 312 36177ft 420kts
08-Mar-18 09:23 35.637130 -120.680538 311 36195ft 417kts
08-Mar-18 09:24 35.729908 -120.764159 311 36199ft 416kts
08-Mar-18 09:25 35.823285 -120.848256 311 36196ft 416kts
08-Mar-18 09:26 35.916183 -120.931895 312 36197ft 417kts
08-Mar-18 09:27 36.009683 -121.016027 312 36194ft 421kts
08-Mar-18 09:28 36.103121 -121.100046 312 36197ft 427kts
08-Mar-18 09:29 36.192258 -121.180149 313 36193ft 430kts
08-Mar-18 09:30 36.277743 -121.256894 313 36195ft 432kts
08-Mar-18 09:31 36.374093 -121.343356 313 36192ft 431kts
08-Mar-18 09:32 36.471164 -121.430438 313 36191ft 432kts
08-Mar-18 09:33 36.567916 -121.517167 313 36189ft 432kts
08-Mar-18 09:34 36.666332 -121.600376 326 36186ft 452kts
08-Mar-18 09:35 36.793516 -121.627443 341 36194ft 476kts
08-Mar-18 09:36 36.920793 -121.650028 340 36193ft 475kts
08-Mar-18 09:37 37.049746 -121.673756 340 36215ft 476kts
08-Mar-18 09:38 37.177685 -121.697344 340 36199ft 478kts
08-Mar-18 09:39 37.299103 -121.719716 340 36179ft 478kts
08-Mar-18 09:40 37.428769 -121.743633 340 36176ft 478kts
08-Mar-18 09:41 37.559486 -121.767746 340 36195ft 479kts
08-Mar-18 09:42 37.690581 -121.791939 340 36194ft 479kts
08-Mar-18 09:43 37.821483 -121.816077 340 36197ft 479kts
08-Mar-18 09:44 37.952695 -121.840293 340 36202ft 479kts
08-Mar-18 09:45 38.083000 -121.864329 340 36202ft 479kts
08-Mar-18 09:46 38.197559 -121.885468 340 36191ft 479kts
08-Mar-18 09:47 38.310791 -121.906367 340 36196ft 479kts
08-Mar-18 09:48 38.440031 -121.930218 340 36205ft 479kts
08-Mar-18 09:49 38.569256 -121.954069 340 36209ft 479kts
08-Mar-18 09:50 38.699135 -121.978022 340 36209ft 479kts
08-Mar-18 09:51 38.829438 -122.002071 340 36211ft 479kts
08-Mar-18 09:52 38.959550 -122.026043 339 36207ft 478kts
08-Mar-18 09:53 39.089954 -122.050109 338 36197ft 474kts
08-Mar-18 09:54 39.214330 -122.073105 339 36188ft 475kts
08-Mar-18 09:55 39.332815 -122.094967 339 36186ft 475kts
08-Mar-18 09:56 39.461952 -122.118802 339 36181ft 475kts
08-Mar-18 09:57 39.588535 -122.142169 339 36181ft 476kts
08-Mar-18 09:58 39.718906 -122.166221 339 36181ft 476kts
08-Mar-18 09:59 39.848948 -122.190219 339 36182ft 476kts
08-Mar-18 10:00 39.977789 -122.213991 339 36175ft 476kts
08-Mar-18 10:01 40.104618 -122.237442 338 36174ft 475kts
08-Mar-18 10:02 40.224455 -122.271139 334 36162ft 467kts
08-Mar-18 10:03 40.346577 -122.306085 334 36154ft 468kts
08-Mar-18 10:04 40.471806 -122.341726 334 36149ft 468kts
08-Mar-18 10:05 40.598201 -122.377700 335 36149ft 468kts
08-Mar-18 10:06 40.724334 -122.413586 335 36149ft 468kts
08-Mar-18 10:07 40.851029 -122.449632 335 36150ft 467kts
08-Mar-18 10:08 40.977202 -122.485537 335 36149ft 468kts
08-Mar-18 10:09 41.100050 -122.520488 335 36098ft 465kts
08-Mar-18 10:10 41.216433 -122.553601 335 36024ft 465kts
08-Mar-18 10:11 41.341575 -122.589209 335 35997ft 465kts
08-Mar-18 10:12 41.467110 -122.624887 336 36001ft 460kts
08-Mar-18 10:13 41.586804 -122.658964 335 36027ft 459kts
08-Mar-18 10:14 41.709949 -122.694030 335 36026ft 458kts
08-Mar-18 10:15 41.834237 -122.729393 335 36024ft 460kts
08-Mar-18 10:16 41.958406 -122.764710 335 36023ft 459kts
08-Mar-18 10:17 42.082545 -122.800021 335 36004ft 459kts
08-Mar-18 10:18 42.198616 -122.833030 335 35986ft 459kts
08-Mar-18 10:19 42.321093 -122.867865 335 35982ft 460kts
08-Mar-18 10:20 42.444932 -122.903079 335 35983ft 460kts
08-Mar-18 10:21 42.575829 -122.905218 353 35984ft 489kts
08-Mar-18 10:22 42.709056 -122.891191 352 35985ft 487kts
08-Mar-18 10:23 42.841632 -122.878438 352 35984ft 487kts
08-Mar-18 10:24 42.975478 -122.865702 354 35964ft 487kts
08-Mar-18 10:25 43.103710 -122.853337 355 35943ft 484kts
08-Mar-18 10:26 43.228270 -122.841429 356 35937ft 485kts
08-Mar-18 10:27 43.361839 -122.828596 356 35937ft 485kts
08-Mar-18 10:28 43.494972 -122.815911 355 35935ft 485kts
08-Mar-18 10:29 43.628947 -122.803011 355 34228ft 486kts
08-Mar-18 10:30 43.758715 -122.790510 355 32223ft 463kts
08-Mar-18 10:31 43.882927 -122.778605 355 30196ft 452kts
08-Mar-18 10:32 44.005888 -122.766883 355 28352ft 447kts
08-Mar-18 10:33 44.124266 -122.755594 355 26596ft 450kts
08-Mar-18 10:34 44.235314 -122.744612 355 24820ft 422kts
08-Mar-18 10:35 44.342226 -122.734101 355 23033ft 406kts
08-Mar-18 10:36 44.453014 -122.723194 355 21156ft 398kts
08-Mar-18 10:37 44.560292 -122.712538 355 19300ft 389kts
08-Mar-18 10:38 44.665033 -122.702054 355 17455ft 380kts
08-Mar-18 10:39 44.767330 -122.691597 354 15550ft 347kts
08-Mar-18 10:40 44.862354 -122.682174 354 13910ft 343kts
08-Mar-18 10:41 44.955861 -122.672766 354 12455ft 335kts
08-Mar-18 10:42 45.048175 -122.663499 355 11021ft 340kts
08-Mar-18 10:43 45.136600 -122.654480 357 9649ft 341kts
08-Mar-18 10:44 45.225451 -122.645387 358 8230ft 338kts
08-Mar-18 10:45 45.304533 -122.671725 326 7777ft 263kts
08-Mar-18 10:46 45.372979 -122.710528 329 6972ft 267kts
08-Mar-18 10:47 45.439535 -122.747145 331 6109ft 251kts
08-Mar-18 10:48 45.505379 -122.779804 334 5271ft 253kts
08-Mar-18 10:49 45.569456 -122.814516 331 4965ft 242kts
08-Mar-18 10:50 45.604557 -122.866296 281 4970ft 218kts
08-Mar-18 10:51 45.635828 -122.941772 299 4969ft 227kts
08-Mar-18 10:52 45.680456 -123.024860 299 4970ft 225kts
08-Mar-18 10:53 45.714008 -123.081504 327 4916ft 236kts
08-Mar-18 10:54 45.768440 -123.062382 47 4188ft 235kts
08-Mar-18 10:55 45.760871 -122.982704 144 3970ft 184kts
08-Mar-18 10:56 45.728440 -122.943552 145 3981ft 184kts
08-Mar-18 10:57 45.697694 -122.885886 127 3580ft 186kts
08-Mar-18 10:58 45.673301 -122.823038 125 2968ft 175kts
08-Mar-18 10:59 45.649268 -122.761003 121 2227ft 183kts
08-Mar-18 11:00 45.624853 -122.698083 121 1217ft 184kts
08-Mar-18 11:01 45.603253 -122.642113 119 374ft 144kts
08-Mar-18 11:02 45.588564 -122.604588 116 30ft 37kts
08-Mar-18 11:03 45.587918 -122.600238 81 30ft 1kts
08-Mar-18 11:04 45.587226 -122.595783 118 31ft 7kts
08-Mar-18 11:05 45.587757 -122.594840 11 30ft 0kts
08-Mar-18 11:06 45.587757 -122.594840 11 30ft 0kts

Navigation Log

Ident Type
Flight plan parsing failed, navigation log unavailable